createdAt,value
2018-11-20T00:01:04.932Z,4.99
2018-11-20T00:02:14.546Z,4.91
2018-11-20T00:03:24.431Z,4.84
2018-11-20T00:04:34.593Z,4.77
2018-11-20T00:05:44.202Z,4.73
2018-11-20T00:06:54.360Z,4.75
2018-11-20T00:08:04.608Z,4.78
2018-11-20T00:09:14.226Z,4.7
2018-11-20T00:10:23.842Z,4.72
2018-11-20T00:11:33.455Z,4.69
2018-11-20T00:12:43.072Z,4.77
2018-11-20T00:13:52.755Z,4.77
2018-11-20T00:15:02.640Z,4.7
2018-11-20T00:16:12.254Z,4.67
2018-11-20T00:17:21.866Z,4.55
2018-11-20T00:18:31.480Z,4.7
2018-11-20T00:19:41.635Z,4.73
2018-11-20T00:20:51.248Z,4.69
2018-11-20T00:22:00.852Z,4.7
2018-11-20T00:23:10.465Z,4.59
2018-11-20T00:24:20.072Z,4.67
2018-11-20T00:25:30.017Z,4.78
2018-11-20T00:26:40.177Z,4.75
2018-11-20T00:27:50.334Z,4.75
2018-11-20T00:29:00.215Z,4.86
2018-11-20T00:30:10.375Z,4.7
2018-11-20T00:31:19.985Z,4.7
2018-11-20T00:32:29.336Z,4.7
2018-11-20T00:33:38.954Z,4.78
2018-11-20T00:34:48.835Z,4.89
2018-11-20T00:35:58.735Z,4.78
2018-11-20T00:37:08.890Z,4.8
2018-11-20T00:38:18.502Z,5
2018-11-20T00:39:28.658Z,5
2018-11-20T00:40:38.534Z,5.04
2018-11-20T00:41:47.870Z,5.1
2018-11-20T00:42:57.801Z,4.96
2018-11-20T00:44:07.680Z,5.09
2018-11-20T00:45:17.570Z,5.02
2018-11-20T00:46:27.449Z,4.99
2018-11-20T00:47:37.054Z,5.12
2018-11-20T00:48:46.937Z,4.99
2018-11-20T00:49:56.826Z,5.04
2018-11-20T00:51:06.707Z,5.1
2018-11-20T00:52:16.317Z,5.1
2018-11-20T00:53:26.196Z,5.04
2018-11-20T00:54:36.117Z,5.07
2018-11-20T00:55:46.271Z,5.09
2018-11-20T00:56:56.178Z,5.06
2018-11-20T00:58:05.796Z,5.06
2018-11-20T00:59:15.956Z,5.06
2018-11-20T01:00:25.835Z,5.13
2018-11-20T01:01:36.004Z,5.07
2018-11-20T01:02:45.903Z,5.06
2018-11-20T01:03:55.236Z,5.09
2018-11-20T01:05:05.947Z,5.13
2018-11-20T01:06:15.283Z,5.04
2018-11-20T01:07:25.161Z,5.21
2018-11-20T01:08:34.774Z,5.25
2018-11-20T01:09:44.650Z,5.12
2018-11-20T01:10:54.256Z,5.13
2018-11-20T01:12:04.142Z,5.18
2018-11-20T01:13:13.483Z,5.1
2018-11-20T01:14:23.361Z,5.18
2018-11-20T01:15:32.974Z,5.17
2018-11-20T01:16:42.853Z,5.15
2018-11-20T01:17:52.512Z,5.15
2018-11-20T01:19:01.848Z,5.07
2018-11-20T01:20:11.456Z,5.1
2018-11-20T01:21:21.341Z,5.03
2018-11-20T01:22:31.246Z,5.13
2018-11-20T01:23:40.864Z,5.21
2018-11-20T01:24:50.769Z,5.18
2018-11-20T01:26:00.655Z,5.18
2018-11-20T01:27:10.543Z,5.13
2018-11-20T01:28:19.886Z,5.12
2018-11-20T01:29:29.270Z,5.18
2018-11-20T01:30:39.161Z,5.21
2018-11-20T01:31:48.766Z,5.13
2018-11-20T01:32:58.375Z,5.25
2018-11-20T01:34:08.254Z,5.13
2018-11-20T01:35:17.868Z,5.35
2018-11-20T01:36:27.763Z,5.25
2018-11-20T01:37:37.921Z,5.21
2018-11-20T01:38:47.525Z,5.25
2018-11-20T01:39:57.687Z,5.09
2018-11-20T01:41:07.347Z,5.24
2018-11-20T01:42:17.266Z,5.22
2018-11-20T01:43:27.431Z,5.28
2018-11-20T01:44:37.315Z,5.2
2018-11-20T01:45:47.198Z,5.2
2018-11-20T01:46:57.356Z,5.22
2018-11-20T01:48:07.231Z,5.18
2018-11-20T01:49:16.842Z,5.18
2018-11-20T01:50:27.004Z,5.21
2018-11-20T01:51:37.197Z,5.18
2018-11-20T01:52:47.079Z,5.39
2018-11-20T01:53:56.688Z,5.24
2018-11-20T01:55:06.298Z,5.25
2018-11-20T01:56:16.175Z,5.22
2018-11-20T01:57:26.063Z,5.24
2018-11-20T01:58:35.445Z,5.48
2018-11-20T01:59:45.602Z,5.33
2018-11-20T02:00:55.227Z,5.31
2018-11-20T02:02:04.841Z,5.27
2018-11-20T02:03:14.719Z,5.25
2018-11-20T02:04:24.880Z,5.27
2018-11-20T02:05:34.497Z,5.33
2018-11-20T02:06:44.401Z,5.27
2018-11-20T02:07:54.285Z,5.17
2018-11-20T02:09:03.898Z,5.22
2018-11-20T02:10:13.509Z,5.24
2018-11-20T02:11:23.669Z,5.27
2018-11-20T02:12:33.006Z,5.25
2018-11-20T02:13:42.624Z,5.28
2018-11-20T02:14:52.792Z,5.22
2018-11-20T02:16:02.944Z,5.3
2018-11-20T02:17:12.556Z,5.42
2018-11-20T02:18:22.439Z,5.35
2018-11-20T02:19:32.322Z,5.35
2018-11-20T02:20:42.209Z,5.35
2018-11-20T02:21:52.141Z,5.24
2018-11-20T02:23:02.312Z,5.25
2018-11-20T02:24:11.920Z,5.27
2018-11-20T02:25:21.256Z,5.3
2018-11-20T02:26:31.141Z,5.36
2018-11-20T02:27:41.022Z,5.39
2018-11-20T02:28:51.182Z,5.46
2018-11-20T02:30:00.793Z,5.48
2018-11-20T02:31:10.678Z,5.51
2018-11-20T02:32:20.291Z,5.39
2018-11-20T02:33:30.180Z,5.33
2018-11-20T02:34:40.075Z,5.27
2018-11-20T02:35:49.958Z,5.25
2018-11-20T02:36:59.304Z,5.17
2018-11-20T02:38:09.456Z,5.24
2018-11-20T02:39:19.067Z,5.24
2018-11-20T02:40:28.958Z,5.21
2018-11-20T02:41:38.567Z,5.24
2018-11-20T02:42:48.451Z,5.28
2018-11-20T02:43:58.607Z,5.21
2018-11-20T02:45:08.529Z,5.22
2018-11-20T02:46:18.686Z,5.21
2018-11-20T02:47:28.574Z,5.27
2018-11-20T02:48:38.729Z,5.35
2018-11-20T02:49:48.335Z,5.38
2018-11-20T02:50:58.606Z,5.33
2018-11-20T02:52:08.767Z,5.2
2018-11-20T02:53:18.373Z,5.46
2018-11-20T02:54:28.272Z,5.36
2018-11-20T02:55:38.436Z,5.36
2018-11-20T02:56:48.319Z,5.28
2018-11-20T02:57:57.670Z,5.33
2018-11-20T02:59:08.016Z,5.33
2018-11-20T03:00:17.630Z,5.35
2018-11-20T03:01:27.782Z,5.38
2018-11-20T03:02:37.945Z,5.31
2018-11-20T03:03:47.570Z,5.45
2018-11-20T03:04:57.655Z,5.4
2018-11-20T03:06:07.819Z,5.27
2018-11-20T03:07:18.012Z,5.36
2018-11-20T03:08:27.901Z,5.35
2018-11-20T03:09:37.830Z,5.38
2018-11-20T03:10:47.166Z,5.3
2018-11-20T03:11:57.042Z,5.3
2018-11-20T03:13:06.663Z,5.31
2018-11-20T03:14:15.724Z,5.24
2018-11-20T03:15:25.884Z,5.3
2018-11-20T03:16:35.497Z,5.25
2018-11-20T03:17:45.102Z,5.24
2018-11-20T03:18:55.271Z,5.38
2018-11-20T03:20:04.881Z,5.36
2018-11-20T03:21:14.772Z,5.36
2018-11-20T03:22:24.938Z,5.48
2018-11-20T03:23:34.278Z,5.43
2018-11-20T03:24:43.893Z,5.46
2018-11-20T03:25:53.792Z,5.38
2018-11-20T03:27:04.188Z,5.4
2018-11-20T03:28:14.932Z,5.24
2018-11-20T03:29:24.818Z,5.27
2018-11-20T03:30:34.702Z,5.35
2018-11-20T03:31:44.590Z,5.36
2018-11-20T03:32:54.749Z,5.33
2018-11-20T03:34:04.097Z,5.35
2018-11-20T03:35:13.713Z,5.4
2018-11-20T03:36:23.654Z,5.42
2018-11-20T03:37:33.006Z,5.45
2018-11-20T03:38:43.161Z,5.42
2018-11-20T03:39:53.316Z,5.39
2018-11-20T03:41:03.205Z,5.35
2018-11-20T03:42:13.080Z,5.4
2018-11-20T03:43:23.238Z,5.39
2018-11-20T03:44:32.305Z,5.25
2018-11-20T03:45:41.644Z,5.2
2018-11-20T03:46:51.806Z,5.18
2018-11-20T03:48:02.056Z,5.24
2018-11-20T03:49:12.480Z,5.35
2018-11-20T03:50:21.815Z,5.33
2018-11-20T03:51:31.427Z,5.33
2018-11-20T03:52:41.303Z,5.35
2018-11-20T03:53:51.521Z,5.38
2018-11-20T03:55:01.407Z,5.35
2018-11-20T03:56:11.565Z,5.35
2018-11-20T03:57:21.176Z,5.42
2018-11-20T03:58:30.782Z,5.35
2018-11-20T03:59:40.665Z,5.39
2018-11-20T04:00:50.558Z,5.3
2018-11-20T04:02:00.175Z,5.36
2018-11-20T04:03:09.788Z,5.43
2018-11-20T04:04:19.944Z,5.35
2018-11-20T04:05:29.558Z,5.35
2018-11-20T04:06:39.719Z,5.42
2018-11-20T04:07:49.875Z,5.42
2018-11-20T04:08:59.764Z,5.35
2018-11-20T04:10:09.101Z,5.39
2018-11-20T04:11:18.710Z,5.4
2018-11-20T04:12:28.590Z,5.39
2018-11-20T04:13:38.474Z,5.33
2018-11-20T04:14:48.356Z,5.36
2018-11-20T04:15:58.535Z,5.3
2018-11-20T04:17:08.415Z,5.38
2018-11-20T04:18:17.746Z,5.33
2018-11-20T04:19:27.081Z,5.3
2018-11-20T04:20:36.692Z,5.42
2018-11-20T04:21:46.300Z,5.35
2018-11-20T04:22:56.176Z,5.33
2018-11-20T04:24:06.065Z,5.38
2018-11-20T04:25:15.938Z,5.36
2018-11-20T04:26:25.574Z,5.35
2018-11-20T04:27:35.183Z,5.42
2018-11-20T04:28:45.065Z,5.46
2018-11-20T04:29:54.950Z,5.46
2018-11-20T04:31:04.562Z,5.45
2018-11-20T04:32:14.166Z,5.38
2018-11-20T04:33:24.326Z,5.48
2018-11-20T04:34:34.215Z,5.46
2018-11-20T04:35:44.106Z,5.35
2018-11-20T04:36:53.982Z,5.38
2018-11-20T04:38:03.600Z,5.39
2018-11-20T04:39:12.662Z,5.42
2018-11-20T04:40:22.813Z,5.42
2018-11-20T04:41:32.698Z,5.28
2018-11-20T04:42:42.585Z,5.31
2018-11-20T04:43:51.641Z,5.31
2018-11-20T04:45:01.249Z,5.45
2018-11-20T04:46:10.860Z,5.38
2018-11-20T04:47:20.247Z,5.31
2018-11-20T04:48:30.134Z,5.38
2018-11-20T04:49:39.785Z,5.4
2018-11-20T04:50:49.883Z,5.38
2018-11-20T04:51:59.767Z,5.3
2018-11-20T04:53:09.437Z,5.38
2018-11-20T04:54:19.328Z,5.24
2018-11-20T04:55:29.211Z,5.24
2018-11-20T04:56:39.105Z,5.22
2018-11-20T04:57:49.659Z,5.24
2018-11-20T04:58:59.822Z,5.28
2018-11-20T05:00:09.714Z,5.31
2018-11-20T05:01:19.594Z,5.24
2018-11-20T05:02:29.472Z,5.24
2018-11-20T05:03:39.081Z,5.24
2018-11-20T05:04:49.239Z,5.27
2018-11-20T05:05:59.129Z,5.43
2018-11-20T05:07:09.020Z,5.3
2018-11-20T05:08:18.897Z,5.13
2018-11-20T05:09:28.776Z,5.13
2018-11-20T05:10:38.379Z,5.17
2018-11-20T05:11:48.535Z,5.04
2018-11-20T05:12:58.396Z,5.24
2018-11-20T05:14:08.125Z,5.15
2018-11-20T05:15:17.743Z,5.1
2018-11-20T05:16:27.619Z,5.07
2018-11-20T05:17:37.502Z,5.12
2018-11-20T05:18:47.113Z,5.07
2018-11-20T05:19:57.286Z,4.97
2018-11-20T05:21:06.627Z,4.99
2018-11-20T05:22:16.288Z,4.99
2018-11-20T05:23:25.889Z,5.02
2018-11-20T05:24:35.770Z,5
2018-11-20T05:25:45.374Z,5.04
2018-11-20T05:26:55.525Z,4.92
2018-11-20T05:28:06.094Z,4.75
2018-11-20T05:29:16.323Z,4.73
2018-11-20T05:30:25.933Z,4.82
2018-11-20T05:31:35.545Z,4.75
2018-11-20T05:32:45.697Z,4.75
2018-11-20T05:33:55.576Z,4.84
2018-11-20T05:35:05.485Z,4.82
2018-11-20T05:36:15.682Z,4.78
2018-11-20T05:37:25.289Z,4.67
2018-11-20T05:38:35.448Z,4.73
2018-11-20T05:39:45.109Z,4.65
2018-11-20T05:40:54.720Z,4.67
2018-11-20T05:42:04.330Z,4.63
2018-11-20T05:43:14.490Z,4.66
2018-11-20T05:44:24.099Z,4.63
2018-11-20T05:45:33.437Z,4.75
2018-11-20T05:46:43.147Z,4.73
2018-11-20T05:47:52.547Z,4.63
2018-11-20T05:49:02.710Z,4.65
2018-11-20T05:50:12.872Z,4.59
2018-11-20T05:51:22.757Z,4.52
2018-11-20T05:52:31.814Z,4.55
2018-11-20T05:53:41.975Z,4.58
2018-11-20T05:54:51.861Z,4.58
2018-11-20T05:56:01.762Z,4.47
2018-11-20T05:57:11.371Z,4.62
2018-11-20T05:58:21.262Z,4.5
2018-11-20T05:59:31.142Z,4.45
2018-11-20T06:00:40.498Z,4.45
2018-11-20T06:01:50.375Z,4.4
2018-11-20T06:03:00.527Z,4.42
2018-11-20T06:04:10.406Z,4.34
2018-11-20T06:05:20.017Z,4.4
2018-11-20T06:06:29.906Z,4.55
2018-11-20T06:07:39.518Z,4.36
2018-11-20T06:08:49.130Z,4.48
2018-11-20T06:09:59.062Z,4.44
2018-11-20T06:11:08.669Z,4.44
2018-11-20T06:12:18.006Z,4.44
2018-11-20T06:13:27.620Z,4.41
2018-11-20T06:14:37.497Z,4.37
2018-11-20T06:15:47.104Z,4.3
2018-11-20T06:16:57.092Z,4.3
2018-11-20T06:18:06.892Z,4.33
2018-11-20T06:19:16.227Z,4.32
2018-11-20T06:20:26.116Z,4.34
2018-11-20T06:21:35.727Z,4.3
2018-11-20T06:22:45.610Z,4.32
2018-11-20T06:23:55.768Z,4.33
2018-11-20T06:25:05.418Z,4.32
2018-11-20T06:26:15.579Z,4.29
2018-11-20T06:27:25.192Z,4.32
2018-11-20T06:28:35.199Z,4.27
2018-11-20T06:29:44.955Z,4.36
2018-11-20T06:30:54.289Z,4.3
2018-11-20T06:32:04.183Z,4.24
2018-11-20T06:33:13.518Z,4.14
2018-11-20T06:34:23.610Z,4.23
2018-11-20T06:35:33.645Z,4.12
2018-11-20T06:36:43.816Z,4.12
2018-11-20T06:37:53.702Z,4.32
2018-11-20T06:39:03.584Z,4.32
2018-11-20T06:40:13.201Z,4.34
2018-11-20T06:41:22.830Z,4.34
2018-11-20T06:42:33.435Z,4.34
2018-11-20T06:43:42.763Z,4.41
2018-11-20T06:44:52.368Z,4.3
2018-11-20T06:46:02.538Z,4.2
2018-11-20T06:47:12.294Z,4.24
2018-11-20T06:48:22.842Z,4.15
2018-11-20T06:49:33.014Z,4.09
2018-11-20T06:50:43.165Z,4.11
2018-11-20T06:51:53.336Z,4.15
2018-11-20T06:53:03.258Z,4.12
2018-11-20T06:54:14.153Z,4.24
2018-11-20T06:55:24.335Z,4.14
2018-11-20T06:56:34.512Z,4.12
2018-11-20T06:57:44.403Z,4.06
2018-11-20T06:58:54.559Z,4.09
2018-11-20T07:00:04.718Z,3.98
2018-11-20T07:01:14.873Z,4.05
2018-11-20T07:02:24.539Z,4.05
2018-11-20T07:03:34.164Z,4.09
2018-11-20T07:04:44.347Z,4.04
2018-11-20T07:05:54.513Z,4.06
2018-11-20T07:07:04.344Z,4.11
2018-11-20T07:08:15.035Z,4.06
2018-11-20T07:09:24.915Z,4.09
2018-11-20T07:10:34.530Z,4.11
2018-11-20T07:11:44.149Z,4.05
2018-11-20T07:12:54.024Z,4.15
2018-11-20T07:14:04.187Z,4.11
2018-11-20T07:15:14.012Z,4.24
2018-11-20T07:16:24.641Z,4.15
2018-11-20T07:17:35.215Z,4.22
2018-11-20T07:18:45.097Z,4.24
2018-11-20T07:19:55.277Z,4.11
2018-11-20T07:21:05.453Z,4.16
2018-11-20T07:22:15.062Z,4.14
2018-11-20T07:23:24.683Z,4.04
2018-11-20T07:24:34.033Z,4.14
2018-11-20T07:25:43.959Z,4.05
2018-11-20T07:26:53.847Z,4.08
2018-11-20T07:28:03.462Z,4.12
2018-11-20T07:29:13.353Z,4.11
2018-11-20T07:30:23.309Z,4.14
2018-11-20T07:31:33.878Z,4.12
2018-11-20T07:32:42.999Z,4.15
2018-11-20T07:33:52.889Z,4.08
2018-11-20T07:35:03.339Z,4.14
2018-11-20T07:36:13.407Z,4.15
2018-11-20T07:37:24.924Z,4.18
2018-11-20T07:38:35.499Z,4.15
2018-11-20T07:39:45.390Z,4.14
2018-11-20T07:40:55.554Z,4.15
2018-11-20T07:42:05.173Z,4.18
2018-11-20T07:43:15.548Z,4.23
2018-11-20T07:44:26.391Z,4.15
2018-11-20T07:45:36.236Z,4.12
2018-11-20T07:46:45.576Z,4.11
2018-11-20T07:47:55.471Z,4.14
2018-11-20T07:49:05.081Z,4.22
2018-11-20T07:50:14.964Z,4.12
2018-11-20T07:51:24.869Z,4.18
2018-11-20T07:52:34.527Z,4.23
2018-11-20T07:53:44.420Z,4.4
2018-11-20T07:54:54.021Z,4.3
2018-11-20T07:56:03.614Z,4.33
2018-11-20T07:57:13.288Z,4.37
2018-11-20T07:58:22.896Z,4.29
2018-11-20T07:59:32.782Z,4.23
2018-11-20T08:00:42.395Z,4.33
2018-11-20T08:01:52.303Z,4.26
2018-11-20T08:03:01.953Z,4.15
2018-11-20T08:04:11.839Z,4.34
2018-11-20T08:05:21.997Z,4.11
2018-11-20T08:06:31.628Z,4.2
2018-11-20T08:07:41.242Z,4.24
2018-11-20T08:08:50.851Z,4.3
2018-11-20T08:10:00.465Z,4.32
2018-11-20T08:11:10.071Z,4.26
2018-11-20T08:12:19.678Z,4.11
2018-11-20T08:13:29.295Z,4.15
2018-11-20T08:14:38.902Z,4.18
2018-11-20T08:15:49.208Z,4.11
2018-11-20T08:16:58.935Z,4.23
2018-11-20T08:18:08.548Z,4.24
2018-11-20T08:19:18.442Z,4.33
2018-11-20T08:20:28.604Z,4.34
2018-11-20T08:21:38.487Z,4.12
2018-11-20T08:22:48.373Z,4.24
2018-11-20T08:23:58.533Z,4.29
2018-11-20T08:25:08.757Z,4.11
2018-11-20T08:26:19.097Z,4.14
2018-11-20T08:27:29.722Z,4.24
2018-11-20T08:28:39.657Z,4.24
2018-11-20T08:29:49.599Z,4.23
2018-11-20T08:30:59.425Z,4.32
2018-11-20T08:32:09.483Z,4.29
2018-11-20T08:33:19.369Z,4.3
2018-11-20T08:34:29.561Z,4.3
2018-11-20T08:35:39.169Z,4.29
2018-11-20T08:36:48.787Z,4.3
2018-11-20T08:37:58.674Z,4.12
2018-11-20T08:39:08.844Z,4.12
2018-11-20T08:40:19.050Z,4.32
2018-11-20T08:41:28.669Z,4.37
2018-11-20T08:42:38.566Z,4.4
2018-11-20T08:43:48.724Z,4.37
2018-11-20T08:44:58.383Z,4.34
2018-11-20T08:46:07.996Z,4.4
2018-11-20T08:47:17.894Z,4.3
2018-11-20T08:48:28.381Z,4.27
2018-11-20T08:49:38.575Z,4.41
2018-11-20T08:50:48.237Z,4.32
2018-11-20T08:51:57.850Z,4.3
2018-11-20T08:53:08.025Z,4.29
2018-11-20T08:54:17.358Z,4.26
2018-11-20T08:55:27.250Z,4.32
2018-11-20T08:56:37.130Z,4.34
2018-11-20T08:57:47.010Z,4.36
2018-11-20T08:58:56.890Z,4.32
2018-11-20T09:00:06.786Z,4.33
2018-11-20T09:01:16.671Z,4.36
2018-11-20T09:02:27.270Z,4.33
2018-11-20T09:03:37.253Z,4.24
2018-11-20T09:04:46.591Z,4.22
2018-11-20T09:05:56.758Z,4.27
2018-11-20T09:07:06.089Z,4.3
2018-11-20T09:08:16.011Z,4.29
2018-11-20T09:09:25.355Z,4.32
2018-11-20T09:10:35.780Z,4.41
2018-11-20T09:11:45.983Z,4.26
2018-11-20T09:12:55.053Z,4.36
2018-11-20T09:14:04.662Z,4.32
2018-11-20T09:15:14.553Z,4.32
2018-11-20T09:16:24.154Z,4.33
2018-11-20T09:17:34.309Z,4.23
2018-11-20T09:18:44.477Z,4.23
2018-11-20T09:19:53.812Z,4.26
2018-11-20T09:21:03.491Z,4.27
2018-11-20T09:22:13.592Z,4.3
2018-11-20T09:23:22.922Z,4.27
2018-11-20T09:24:33.073Z,4.23
2018-11-20T09:25:42.948Z,4.26
2018-11-20T09:26:53.414Z,4.37
2018-11-20T09:28:03.962Z,4.41
2018-11-20T09:29:14.190Z,4.37
2018-11-20T09:30:24.080Z,4.45
2018-11-20T09:31:33.693Z,4.41
2018-11-20T09:32:43.581Z,4.4
2018-11-20T09:33:53.463Z,4.42
2018-11-20T09:35:04.046Z,4.41
2018-11-20T09:36:14.735Z,4.41
2018-11-20T09:37:24.623Z,4.36
2018-11-20T09:38:34.516Z,4.33
2018-11-20T09:39:44.400Z,4.33
2018-11-20T09:40:54.569Z,4.3
2018-11-20T09:42:04.178Z,4.32
2018-11-20T09:43:13.791Z,4.37
2018-11-20T09:44:23.943Z,4.26
2018-11-20T09:45:33.553Z,4.27
2018-11-20T09:46:43.841Z,4.32
2018-11-20T09:47:53.828Z,4.42
2018-11-20T09:49:04.002Z,4.32
2018-11-20T09:50:14.161Z,4.36
2018-11-20T09:51:24.046Z,4.29
2018-11-20T09:52:34.126Z,4.32
2018-11-20T09:53:43.948Z,4.34
2018-11-20T09:54:54.106Z,4.33
2018-11-20T09:56:04.261Z,4.34
2018-11-20T09:57:14.152Z,4.36
2018-11-20T09:58:23.638Z,4.32
2018-11-20T09:59:33.511Z,4.32
2018-11-20T10:00:43.511Z,4.41
2018-11-20T10:01:53.288Z,4.36
2018-11-20T10:03:03.793Z,4.5
2018-11-20T10:04:13.459Z,4.52
2018-11-20T10:05:23.077Z,4.63
2018-11-20T10:06:32.962Z,4.48
2018-11-20T10:07:42.308Z,4.5
2018-11-20T10:08:52.451Z,4.45
2018-11-20T10:10:02.662Z,4.42
2018-11-20T10:11:12.824Z,4.5
2018-11-20T10:12:22.978Z,4.5
2018-11-20T10:13:32.590Z,4.52
2018-11-20T10:14:42.534Z,4.41
2018-11-20T10:15:52.351Z,4.42
2018-11-20T10:17:02.499Z,4.45
2018-11-20T10:18:11.831Z,4.47
2018-11-20T10:19:21.449Z,4.51
2018-11-20T10:20:31.058Z,4.44
2018-11-20T10:21:40.872Z,4.32
2018-11-20T10:22:51.175Z,4.42
2018-11-20T10:24:00.784Z,4.5
2018-11-20T10:25:10.951Z,4.48
2018-11-20T10:26:21.291Z,4.58
2018-11-20T10:27:31.404Z,4.62
2018-11-20T10:28:41.026Z,4.51
2018-11-20T10:29:50.911Z,4.42
2018-11-20T10:31:00.523Z,4.42
2018-11-20T10:32:09.860Z,4.52
2018-11-20T10:33:19.475Z,4.5
2018-11-20T10:34:29.148Z,4.48
2018-11-20T10:35:39.760Z,4.51
2018-11-20T10:36:49.684Z,4.58
2018-11-20T10:37:59.290Z,4.42
2018-11-20T10:39:09.186Z,4.44
2018-11-20T10:40:19.153Z,4.58
2018-11-20T10:41:29.213Z,4.51
2018-11-20T10:42:38.825Z,4.44
2018-11-20T10:43:48.701Z,4.55
2018-11-20T10:44:58.583Z,4.59
2018-11-20T10:46:08.648Z,4.58
2018-11-20T10:47:18.885Z,4.5
2018-11-20T10:48:28.227Z,4.52
2018-11-20T10:49:37.572Z,4.42
2018-11-20T10:50:47.461Z,4.44
2018-11-20T10:51:57.623Z,4.54
2018-11-20T10:53:06.958Z,4.52
2018-11-20T10:54:16.293Z,4.54
2018-11-20T10:55:26.175Z,4.55
2018-11-20T10:56:36.332Z,4.52
2018-11-20T10:57:46.207Z,4.6
2018-11-20T10:58:56.097Z,4.62
2018-11-20T11:00:05.716Z,4.73
2018-11-20T11:01:15.603Z,4.77
2018-11-20T11:02:25.217Z,4.72
2018-11-20T11:03:35.098Z,4.69
2018-11-20T11:04:45.365Z,4.67
2018-11-20T11:05:55.433Z,4.6
2018-11-20T11:07:06.276Z,4.69
2018-11-20T11:08:17.447Z,4.62
2018-11-20T11:09:27.405Z,4.82
2018-11-20T11:10:37.296Z,4.77
2018-11-20T11:11:47.202Z,4.84
2018-11-20T11:12:57.485Z,4.72
2018-11-20T11:14:07.101Z,4.67
2018-11-20T11:15:16.167Z,4.69
2018-11-20T11:16:26.054Z,4.75
2018-11-20T11:17:35.932Z,4.75
2018-11-20T11:18:46.099Z,4.96
2018-11-20T11:19:55.716Z,4.89
2018-11-20T11:21:05.825Z,4.82
2018-11-20T11:22:15.933Z,4.86
2018-11-20T11:23:25.551Z,4.91
2018-11-20T11:24:35.702Z,4.99
2018-11-20T11:25:45.859Z,4.91
2018-11-20T11:26:55.750Z,4.92
2018-11-20T11:28:05.101Z,4.99
2018-11-20T11:29:16.421Z,4.85
2018-11-20T11:30:26.307Z,4.89
2018-11-20T11:31:36.194Z,4.96
2018-11-20T11:32:45.810Z,5.04
2018-11-20T11:33:55.978Z,4.96
2018-11-20T11:35:06.301Z,4.97
2018-11-20T11:36:15.918Z,4.78
2018-11-20T11:37:24.997Z,4.91
2018-11-20T11:38:35.164Z,4.92
2018-11-20T11:39:45.329Z,4.92
2018-11-20T11:40:55.216Z,4.91
2018-11-20T11:42:04.547Z,4.92
2018-11-20T11:43:14.428Z,4.96
2018-11-20T11:44:24.038Z,4.92
2018-11-20T11:45:33.380Z,5
2018-11-20T11:46:43.544Z,4.97
2018-11-20T11:47:52.883Z,4.96
2018-11-20T11:49:02.499Z,5.04
2018-11-20T11:50:12.388Z,4.99
2018-11-20T11:51:25.447Z,5.03
2018-11-20T11:52:35.524Z,5.07
2018-11-20T11:53:45.408Z,5.17
2018-11-20T11:54:55.817Z,5.02
2018-11-20T11:56:06.226Z,4.97
2018-11-20T11:57:16.109Z,5.03
2018-11-20T11:58:26.430Z,5.1
2018-11-20T11:59:36.043Z,4.88
2018-11-20T12:00:46.207Z,5.02
2018-11-20T12:04:12.920Z,5
2018-11-20T12:05:23.083Z,4.99
2018-11-20T12:06:32.968Z,5.1
2018-11-20T12:07:47.103Z,5.09
2018-11-20T12:08:57.229Z,5.03
2018-11-20T12:10:07.112Z,5.04
2018-11-20T12:11:17.277Z,5.1
2018-11-20T12:12:27.159Z,5.17
2018-11-20T12:13:37.048Z,5.06
2018-11-20T12:14:49.590Z,5.06
2018-11-20T12:16:01.602Z,4.99
2018-11-20T12:17:11.770Z,4.99
2018-11-20T12:18:21.943Z,4.97
2018-11-20T12:19:32.116Z,5.06
2018-11-20T12:20:45.939Z,5
2018-11-20T12:21:56.100Z,5.09
2018-11-20T12:23:05.983Z,5
2018-11-20T12:24:16.191Z,5.02
2018-11-20T12:25:26.116Z,5.06
2018-11-20T12:26:36.314Z,5.03
2018-11-20T12:27:46.211Z,5.03
2018-11-20T12:28:57.417Z,4.97
2018-11-20T12:30:08.026Z,5.06
2018-11-20T12:31:20.812Z,5.06
2018-11-20T12:32:31.576Z,5.04
2018-11-20T12:33:42.201Z,5.03
2018-11-20T12:34:54.359Z,5.07
2018-11-20T12:36:06.687Z,5.03
2018-11-20T12:37:19.443Z,5.07
2018-11-20T12:38:31.968Z,5.15
2018-11-20T12:39:45.424Z,5.17
2018-11-20T12:40:55.305Z,5.2
2018-11-20T12:42:07.443Z,5.09
2018-11-20T12:43:20.537Z,5.12
2018-11-20T12:44:30.166Z,5.13
2018-11-20T12:45:43.189Z,5.04
2018-11-20T12:46:55.826Z,5.09
2018-11-20T12:48:08.610Z,5.04
2018-11-20T12:49:21.884Z,5.06
2018-11-20T12:50:32.973Z,5.12
2018-11-20T12:51:42.913Z,5
2018-11-20T12:52:54.303Z,5.1
2018-11-20T12:54:07.637Z,5.2
2018-11-20T12:55:20.387Z,5.13
2018-11-20T12:56:30.064Z,5.15
2018-11-20T12:57:41.763Z,5.07
2018-11-20T12:58:53.987Z,5.06
2018-11-20T13:00:04.296Z,5.1
2018-11-20T13:01:15.027Z,5.02
2018-11-20T13:02:25.247Z,5.06
2018-11-20T13:03:35.766Z,5.12
2018-11-20T13:04:45.652Z,5.12
2018-11-20T13:05:57.768Z,5.04
2018-11-20T13:07:07.697Z,5.03
2018-11-20T13:08:17.854Z,5
2018-11-20T13:09:27.735Z,5.02
2018-11-20T13:10:37.620Z,5.03
2018-11-20T13:11:47.796Z,5.1
2018-11-20T13:12:58.594Z,5.04
2018-11-20T13:14:08.812Z,5.1
2018-11-20T13:15:19.091Z,5.1
2018-11-20T13:16:28.973Z,5.06
2018-11-20T13:17:42.310Z,5.04
2018-11-20T13:18:59.191Z,4.97
2018-11-20T13:20:13.110Z,5.02
2018-11-20T13:21:23.321Z,5.07
2018-11-20T13:22:37.390Z,5.04
2018-11-20T13:23:49.484Z,5.06
2018-11-20T13:25:04.246Z,4.96
2018-11-20T13:26:14.925Z,5.04
2018-11-20T13:27:24.537Z,5.02
2018-11-20T13:28:34.430Z,4.96
2018-11-20T13:29:44.594Z,4.92
2018-11-20T13:30:54.754Z,5.07
2018-11-20T13:32:04.925Z,4.97
2018-11-20T13:33:20.056Z,4.99
2018-11-20T13:34:32.105Z,5.03
2018-11-20T13:35:44.359Z,5.06
2018-11-20T13:36:53.974Z,5.07
2018-11-20T13:38:05.551Z,5.03
2018-11-20T13:39:18.783Z,4.99
2018-11-20T13:40:28.393Z,5.09
2018-11-20T13:41:39.898Z,5.03
2018-11-20T13:42:48.166Z,5.03
2018-11-20T13:43:59.659Z,5.12
2018-11-20T13:45:09.566Z,5.03
2018-11-20T13:46:25.741Z,5.17
2018-11-20T13:47:36.756Z,5.02
2018-11-20T13:48:47.820Z,4.99
2018-11-20T13:49:59.404Z,5.04
2018-11-20T13:51:09.565Z,5.02
2018-11-20T13:52:19.500Z,4.97
2018-11-20T13:53:29.429Z,5.12
2018-11-20T13:54:39.662Z,5.06
2018-11-20T13:55:49.554Z,5.03
2018-11-20T13:56:59.706Z,4.99
2018-11-20T13:58:09.926Z,5.04
2018-11-20T13:59:20.081Z,5.09
2018-11-20T14:00:30.258Z,5.1
2018-11-20T14:01:40.411Z,5.07
2018-11-20T14:02:50.306Z,5.04
2018-11-20T14:04:00.272Z,4.99
2018-11-20T14:05:10.558Z,4.92
2018-11-20T14:06:20.169Z,5
2018-11-20T14:07:30.325Z,4.99
2018-11-20T14:08:39.937Z,5
2018-11-20T14:09:49.875Z,4.96
2018-11-20T14:10:59.768Z,5.07
2018-11-20T14:12:09.668Z,4.99
2018-11-20T14:13:19.573Z,4.92
2018-11-20T14:14:29.762Z,4.85
2018-11-20T14:15:39.653Z,4.96
2018-11-20T14:16:49.542Z,4.77
2018-11-20T14:17:59.147Z,4.86
2018-11-20T14:19:08.762Z,4.97
2018-11-20T14:20:23.780Z,4.75
2018-11-20T14:21:33.952Z,4.75
2018-11-20T14:22:43.838Z,4.94
2018-11-20T14:23:53.454Z,4.86
2018-11-20T14:25:03.345Z,4.89
2018-11-20T14:26:13.236Z,4.73
2018-11-20T14:27:23.464Z,4.8
2018-11-20T14:28:33.367Z,4.77
2018-11-20T14:29:43.541Z,4.84
2018-11-20T14:30:53.171Z,4.72
2018-11-20T14:32:03.361Z,4.86
2018-11-20T14:33:13.555Z,4.8
2018-11-20T14:34:24.233Z,4.78
2018-11-20T14:35:34.518Z,4.69
2018-11-20T14:36:44.427Z,4.72
2018-11-20T14:37:54.602Z,4.72
2018-11-20T14:39:04.499Z,4.72
2018-11-20T14:40:14.922Z,4.8
2018-11-20T14:41:24.413Z,4.73
2018-11-20T14:42:34.021Z,4.78
2018-11-20T14:43:43.911Z,4.8
2018-11-20T14:44:53.794Z,4.82
2018-11-20T14:46:03.690Z,4.82
2018-11-20T14:47:13.874Z,4.88
2018-11-20T14:48:23.524Z,5.02
2018-11-20T14:49:33.137Z,4.86
2018-11-20T14:50:49.695Z,4.85
2018-11-20T14:51:59.582Z,4.73
2018-11-20T14:53:09.798Z,4.84
2018-11-20T14:54:19.956Z,4.78
2018-11-20T14:55:29.854Z,4.8
2018-11-20T14:56:39.795Z,4.73
2018-11-20T14:57:49.410Z,4.75
2018-11-20T14:58:59.323Z,4.72
2018-11-20T15:00:09.481Z,4.6
2018-11-20T15:01:19.092Z,4.69
2018-11-20T15:02:28.706Z,4.62
2018-11-20T15:03:38.609Z,4.7
2018-11-20T15:04:48.524Z,4.62
2018-11-20T15:05:58.138Z,4.72
2018-11-20T15:07:08.554Z,4.78
2018-11-20T15:08:21.988Z,4.7
2018-11-20T15:09:32.157Z,4.7
2018-11-20T15:10:42.326Z,4.72
2018-11-20T15:11:52.498Z,4.67
2018-11-20T15:13:02.653Z,4.73
2018-11-20T15:14:12.564Z,4.67
2018-11-20T15:15:22.743Z,4.62
2018-11-20T15:16:32.628Z,4.65
2018-11-20T15:17:42.517Z,4.59
2018-11-20T15:18:52.147Z,4.6
2018-11-20T15:20:02.312Z,4.51
2018-11-20T15:21:12.204Z,4.63
2018-11-20T15:22:22.095Z,4.69
2018-11-20T15:23:32.311Z,4.73
2018-11-20T15:24:42.484Z,4.58
2018-11-20T15:25:52.092Z,4.59
2018-11-20T15:27:02.301Z,4.55
2018-11-20T15:28:12.466Z,4.72
2018-11-20T15:29:22.667Z,4.72
2018-11-20T15:30:32.558Z,4.6
2018-11-20T15:31:42.761Z,4.62
2018-11-20T15:32:52.955Z,4.65
2018-11-20T15:34:02.841Z,4.72
2018-11-20T15:35:12.727Z,4.75
2018-11-20T15:36:22.887Z,4.62
2018-11-20T15:37:32.772Z,4.62
2018-11-20T15:38:42.936Z,4.63
2018-11-20T15:39:53.099Z,4.62